createdAt,value
2023-02-01T00:01:11.948Z,100.00
2023-02-01T00:03:38.901Z,100.00
2023-02-01T00:06:05.666Z,100.00
2023-02-01T00:08:36.109Z,100.00
2023-02-01T00:11:05.350Z,100.00
2023-02-01T00:13:33.366Z,100.00
2023-02-01T00:16:13.803Z,100.00
2023-02-01T00:18:40.420Z,100.00
2023-02-01T00:21:07.418Z,100.00
2023-02-01T00:23:35.551Z,100.00
2023-02-01T00:26:04.085Z,100.00
2023-02-01T00:28:30.883Z,100.00
2023-02-01T00:31:02.763Z,100.00
2023-02-01T00:33:30.014Z,100.00
2023-02-01T00:36:02.811Z,100.00
2023-02-01T00:38:31.246Z,100.00
2023-02-01T00:41:19.532Z,100.00
2023-02-01T00:43:46.809Z,100.00
2023-02-01T00:46:15.485Z,100.00
2023-02-01T00:48:42.670Z,100.00
2023-02-01T00:51:12.445Z,100.00
2023-02-01T00:53:40.755Z,100.00
2023-02-01T00:56:08.552Z,100.00
2023-02-01T00:58:35.666Z,100.00
2023-02-01T01:01:21.340Z,100.00
2023-02-01T01:03:57.220Z,100.00
2023-02-01T01:06:31.644Z,100.00
2023-02-01T01:09:00.140Z,100.00
2023-02-01T01:11:29.321Z,100.00
2023-02-01T01:13:57.871Z,100.00
2023-02-01T01:16:26.297Z,100.00
2023-02-01T01:18:55.868Z,100.00
2023-02-01T01:21:23.106Z,100.00
2023-02-01T01:23:50.391Z,100.00
2023-02-01T01:26:20.348Z,100.00
2023-02-01T01:28:47.469Z,100.00
2023-02-01T01:31:17.287Z,100.00
2023-02-01T01:33:45.537Z,100.00
2023-02-01T01:36:13.306Z,100.00
2023-02-01T01:38:41.509Z,100.00
2023-02-01T01:41:09.628Z,100.00
2023-02-01T01:43:56.209Z,100.00
2023-02-01T01:46:26.417Z,100.00
2023-02-01T01:49:22.815Z,100.00
2023-02-01T01:51:54.464Z,100.00
2023-02-01T01:54:30.432Z,100.00
2023-02-01T01:57:01.935Z,100.00
2023-02-01T01:59:30.347Z,100.00
2023-02-01T02:01:57.523Z,100.00
2023-02-01T02:04:25.276Z,100.00
2023-02-01T02:07:04.814Z,100.00
2023-02-01T02:09:31.847Z,100.00
2023-02-01T02:12:00.004Z,100.00
2023-02-01T02:14:27.881Z,100.00
2023-02-01T02:17:21.665Z,100.00
2023-02-01T02:19:50.991Z,100.00
2023-02-01T02:22:44.992Z,100.00
2023-02-01T02:25:39.534Z,100.00
2023-02-01T02:28:17.708Z,100.00
2023-02-01T02:30:53.571Z,100.00
2023-02-01T02:33:23.306Z,100.00
2023-02-01T02:36:01.098Z,100.00
2023-02-01T02:38:38.063Z,100.00
2023-02-01T02:41:45.192Z,100.00
2023-02-01T02:44:40.494Z,100.00
2023-02-01T02:47:26.174Z,100.00
2023-02-01T02:50:22.537Z,100.00
2023-02-01T02:53:16.665Z,100.00
2023-02-01T02:55:45.004Z,100.00
2023-02-01T02:58:32.278Z,100.00
2023-02-01T03:01:18.227Z,100.00
2023-02-01T03:04:03.859Z,100.00
2023-02-01T03:06:33.642Z,100.00
2023-02-01T03:09:12.720Z,100.00
2023-02-01T03:11:58.779Z,100.00
2023-02-01T03:14:28.448Z,100.00
2023-02-01T03:17:04.677Z,100.00
2023-02-01T03:19:48.311Z,100.00
2023-02-01T03:22:18.705Z,100.00
2023-02-01T03:24:55.799Z,100.00
2023-02-01T03:27:28.532Z,100.00
2023-02-01T03:30:01.305Z,100.00
2023-02-01T03:32:28.689Z,100.00
2023-02-01T03:34:56.506Z,100.00
2023-02-01T03:37:28.604Z,100.00
2023-02-01T03:40:02.157Z,100.00
2023-02-01T03:42:35.511Z,100.00
2023-02-01T03:45:14.286Z,100.00
2023-02-01T03:47:46.274Z,100.00
2023-02-01T03:50:17.260Z,100.00
2023-02-01T03:52:54.159Z,100.00
2023-02-01T03:55:24.338Z,100.00
2023-02-01T03:58:08.852Z,100.00
2023-02-01T04:00:35.822Z,100.00
2023-02-01T04:03:04.859Z,100.00
2023-02-01T04:05:31.520Z,100.00
2023-02-01T04:08:03.010Z,100.00
2023-02-01T04:10:29.695Z,100.00
2023-02-01T04:12:56.300Z,100.00
2023-02-01T04:15:23.066Z,100.00
2023-02-01T04:17:49.659Z,100.00
2023-02-01T04:20:16.570Z,100.00
2023-02-01T04:22:43.244Z,100.00
2023-02-01T04:25:10.037Z,100.00
2023-02-01T04:27:36.719Z,100.00
2023-02-01T04:30:04.976Z,100.00
2023-02-01T04:32:31.690Z,100.00
2023-02-01T04:34:58.306Z,100.00
2023-02-01T04:37:24.991Z,100.00
2023-02-01T04:39:51.599Z,100.00
2023-02-01T04:42:18.203Z,100.00
2023-02-01T04:44:44.779Z,100.00
2023-02-01T04:47:12.469Z,100.00
2023-02-01T04:49:39.128Z,100.00
2023-02-01T04:52:05.775Z,100.00
2023-02-01T04:54:32.452Z,100.00
2023-02-01T04:56:59.028Z,100.00
2023-02-01T04:59:26.100Z,100.00
2023-02-01T05:01:52.771Z,100.00
2023-02-01T05:04:19.783Z,100.00
2023-02-01T05:06:46.929Z,100.00
2023-02-01T05:09:13.569Z,100.00
2023-02-01T05:11:58.675Z,100.00
2023-02-01T05:14:25.282Z,100.00
2023-02-01T05:16:52.070Z,100.00
2023-02-01T05:19:18.730Z,100.00
2023-02-01T05:21:45.437Z,100.00
2023-02-01T05:24:17.406Z,100.00
2023-02-01T05:26:44.090Z,100.00
2023-02-01T05:29:11.748Z,100.00
2023-02-01T05:31:38.907Z,100.00
2023-02-01T05:34:06.240Z,100.00
2023-02-01T05:36:33.575Z,100.00
2023-02-01T05:39:00.366Z,100.00
2023-02-01T05:41:27.404Z,100.00
2023-02-01T05:43:54.008Z,100.00
2023-02-01T05:46:20.678Z,100.00
2023-02-01T05:48:47.584Z,100.00
2023-02-01T05:51:14.205Z,100.00
2023-02-01T05:53:40.993Z,100.00
2023-02-01T05:56:08.160Z,100.00
2023-02-01T05:58:34.820Z,100.00
2023-02-01T06:01:02.482Z,100.00
2023-02-01T06:03:29.522Z,100.00
2023-02-01T06:05:56.180Z,100.00
2023-02-01T06:08:25.299Z,100.00
2023-02-01T06:10:52.991Z,100.00
2023-02-01T06:13:21.370Z,100.00
2023-02-01T06:15:48.181Z,100.00
2023-02-01T06:18:16.814Z,100.00
2023-02-01T06:20:43.423Z,100.00
2023-02-01T06:23:10.283Z,100.00
2023-02-01T06:25:36.977Z,100.00
2023-02-01T06:28:06.678Z,100.00
2023-02-01T06:30:33.326Z,100.00
2023-02-01T06:33:00.115Z,100.00
2023-02-01T06:35:27.532Z,100.00
2023-02-01T06:37:54.153Z,100.00
2023-02-01T06:40:21.538Z,100.00
2023-02-01T06:42:49.970Z,100.00
2023-02-01T06:45:17.614Z,100.00
2023-02-01T06:47:44.197Z,100.00
2023-02-01T06:50:11.603Z,100.00
2023-02-01T06:52:38.227Z,100.00
2023-02-01T06:55:05.237Z,100.00
2023-02-01T06:57:34.090Z,100.00
2023-02-01T07:00:01.054Z,100.00
2023-02-01T07:02:27.781Z,100.00
2023-02-01T07:04:54.434Z,100.00
2023-02-01T07:07:23.446Z,100.00
2023-02-01T07:09:51.254Z,100.00
2023-02-01T07:12:18.050Z,100.00
2023-02-01T07:14:44.783Z,100.00
2023-02-01T07:17:12.053Z,100.00
2023-02-01T07:19:38.788Z,100.00
2023-02-01T07:22:05.510Z,100.00
2023-02-01T07:24:32.345Z,100.00
2023-02-01T07:26:58.961Z,100.00
2023-02-01T07:29:25.894Z,100.00
2023-02-01T07:31:52.629Z,100.00
2023-02-01T07:34:19.288Z,100.00
2023-02-01T07:36:46.653Z,100.00
2023-02-01T07:39:13.369Z,100.00
2023-02-01T07:41:40.063Z,100.00
2023-02-01T07:44:06.703Z,100.00
2023-02-01T07:46:33.317Z,100.00
2023-02-01T07:49:00.233Z,100.00
2023-02-01T07:51:27.188Z,100.00
2023-02-01T07:53:56.264Z,100.00
2023-02-01T07:56:26.502Z,100.00
2023-02-01T07:58:55.923Z,100.00
2023-02-01T08:01:25.631Z,100.00
2023-02-01T08:03:54.015Z,100.00
2023-02-01T08:06:22.131Z,100.00
2023-02-01T08:08:50.377Z,100.00
2023-02-01T08:11:18.877Z,100.00
2023-02-01T08:13:46.143Z,91.44
2023-02-01T08:16:14.974Z,96.38
2023-02-01T08:18:42.611Z,92.39
2023-02-01T08:21:20.127Z,83.91
2023-02-01T08:23:47.440Z,78.15
2023-02-01T08:26:20.379Z,70.87
2023-02-01T08:28:53.813Z,63.74
2023-02-01T08:31:22.580Z,57.50
2023-02-01T08:33:54.845Z,55.65
2023-02-01T08:36:22.566Z,50.55
2023-02-01T08:38:49.232Z,46.75
2023-02-01T08:41:18.480Z,44.64
2023-02-01T08:43:45.813Z,41.77
2023-02-01T08:46:12.747Z,40.49
2023-02-01T08:48:40.092Z,38.81
2023-02-01T08:51:11.808Z,40.12
2023-02-01T08:53:42.220Z,38.89
2023-02-01T08:56:10.360Z,38.07
2023-02-01T08:58:37.158Z,37.05
2023-02-01T09:01:16.772Z,37.06
2023-02-01T09:03:43.767Z,37.82
2023-02-01T09:06:13.575Z,37.98
2023-02-01T09:08:41.520Z,36.68
2023-02-01T09:11:13.391Z,36.42
2023-02-01T09:13:40.049Z,36.27
2023-02-01T09:16:07.174Z,35.70
2023-02-01T09:18:34.632Z,36.75
2023-02-01T09:21:05.718Z,38.08
2023-02-01T09:23:32.627Z,37.12
2023-02-01T09:26:04.302Z,36.35
2023-02-01T09:28:33.423Z,35.00
2023-02-01T09:31:01.629Z,33.16
2023-02-01T09:33:31.603Z,33.69
2023-02-01T09:35:59.961Z,31.29
2023-02-01T09:38:28.326Z,29.28
2023-02-01T09:40:56.626Z,29.71
2023-02-01T09:43:49.503Z,29.47
2023-02-01T09:46:25.309Z,29.99
2023-02-01T09:48:59.324Z,28.13
2023-02-01T09:51:32.044Z,28.56
2023-02-01T09:54:07.583Z,28.51
2023-02-01T09:56:47.932Z,27.68
2023-02-01T09:59:38.681Z,27.52
2023-02-01T10:02:11.959Z,27.05
2023-02-01T10:04:38.602Z,27.28
2023-02-01T10:07:11.411Z,26.63
2023-02-01T10:10:02.468Z,26.21
2023-02-01T10:12:44.076Z,25.14
2023-02-01T10:15:20.628Z,25.46
2023-02-01T10:18:03.210Z,25.20
2023-02-01T10:20:36.167Z,25.45
2023-02-01T10:23:31.648Z,24.12
2023-02-01T10:26:23.801Z,22.57
2023-02-01T10:28:53.615Z,22.66
2023-02-01T10:31:26.185Z,24.26
2023-02-01T10:34:13.732Z,23.58
2023-02-01T10:36:56.545Z,23.30
2023-02-01T10:39:24.098Z,21.16
2023-02-01T10:41:50.784Z,20.94
2023-02-01T10:44:23.484Z,21.93
2023-02-01T10:46:51.458Z,21.09
2023-02-01T10:49:30.738Z,19.92
2023-02-01T10:52:08.030Z,19.64
2023-02-01T10:54:39.245Z,20.40
2023-02-01T10:57:27.079Z,20.09
2023-02-01T10:59:53.925Z,20.41
2023-02-01T11:02:32.117Z,19.83
2023-02-01T11:05:10.706Z,21.13
2023-02-01T11:07:38.164Z,20.41
2023-02-01T11:10:05.517Z,20.43
2023-02-01T11:12:36.021Z,20.08
2023-02-01T11:15:15.367Z,19.38
2023-02-01T11:17:47.439Z,20.48
2023-02-01T11:20:16.491Z,21.13
2023-02-01T11:22:54.420Z,21.00
2023-02-01T11:25:22.593Z,20.95
2023-02-01T11:27:55.347Z,20.29
2023-02-01T11:30:37.743Z,20.06
2023-02-01T11:33:06.940Z,20.67
2023-02-01T11:35:39.719Z,20.26
2023-02-01T11:38:23.324Z,21.01
2023-02-01T11:40:50.963Z,21.05
2023-02-01T11:43:26.348Z,20.80
2023-02-01T11:46:01.859Z,20.11
2023-02-01T11:48:32.026Z,20.40
2023-02-01T11:51:13.442Z,19.45
2023-02-01T11:53:47.410Z,18.04
2023-02-01T11:56:26.024Z,19.76
2023-02-01T11:59:08.573Z,18.90
2023-02-01T12:01:49.264Z,18.31
2023-02-01T12:04:21.632Z,16.93
2023-02-01T12:06:53.062Z,15.32
2023-02-01T12:09:28.245Z,16.85
2023-02-01T12:12:37.556Z,16.60
2023-02-01T12:15:07.550Z,15.42
2023-02-01T12:17:56.352Z,18.11
2023-02-01T12:20:58.335Z,17.69
2023-02-01T12:24:00.269Z,16.47
2023-02-01T12:26:48.107Z,16.53
2023-02-01T12:29:27.828Z,16.39
2023-02-01T12:32:15.848Z,15.83
2023-02-01T12:35:14.177Z,16.60
2023-02-01T12:37:55.564Z,16.27
2023-02-01T12:40:37.551Z,16.89
2023-02-01T12:43:37.788Z,16.18
2023-02-01T12:46:18.449Z,15.41
2023-02-01T12:49:17.188Z,15.60
2023-02-01T12:51:48.009Z,16.05
2023-02-01T12:54:21.497Z,17.17
2023-02-01T12:56:56.837Z,18.65
2023-02-01T12:59:32.905Z,17.73
2023-02-01T13:02:17.654Z,16.58
2023-02-01T13:05:04.321Z,16.23
2023-02-01T13:07:46.793Z,16.82
2023-02-01T13:10:24.746Z,16.66
2023-02-01T13:12:57.728Z,17.41
2023-02-01T13:15:30.305Z,17.57
2023-02-01T13:18:02.932Z,18.04
2023-02-01T13:20:36.157Z,16.70
2023-02-01T13:23:37.521Z,17.46
2023-02-01T13:26:04.496Z,17.25
2023-02-01T13:28:54.227Z,17.79
2023-02-01T13:31:48.959Z,17.63
2023-02-01T13:34:37.761Z,18.25
2023-02-01T13:37:23.166Z,18.53
2023-02-01T13:39:50.401Z,18.35
2023-02-01T13:42:25.262Z,17.11
2023-02-01T13:44:58.634Z,18.00
2023-02-01T13:47:35.159Z,18.73
2023-02-01T13:50:25.660Z,19.38
2023-02-01T13:52:53.842Z,18.29
2023-02-01T13:55:20.369Z,19.71
2023-02-01T13:57:49.588Z,18.25
2023-02-01T14:00:37.355Z,18.42
2023-02-01T14:03:04.137Z,17.73
2023-02-01T14:05:30.657Z,17.27
2023-02-01T14:08:06.199Z,18.97
2023-02-01T14:11:00.310Z,19.07
2023-02-01T14:13:38.486Z,18.14
2023-02-01T14:16:05.269Z,17.95
2023-02-01T14:18:35.120Z,20.29
2023-02-01T14:21:26.858Z,19.79
2023-02-01T14:24:18.736Z,19.51
2023-02-01T14:26:49.069Z,18.84
2023-02-01T14:29:31.772Z,19.86
2023-02-01T14:32:21.144Z,23.02
2023-02-01T14:34:48.022Z,23.49
2023-02-01T14:37:17.903Z,24.92
2023-02-01T14:39:56.177Z,27.10
2023-02-01T14:42:27.680Z,28.81
2023-02-01T14:44:59.304Z,29.56
2023-02-01T14:47:30.416Z,32.67
2023-02-01T14:50:19.477Z,35.84
2023-02-01T14:52:48.901Z,33.15
2023-02-01T14:55:37.022Z,32.60
2023-02-01T14:58:18.015Z,32.20
2023-02-01T15:01:17.145Z,34.07
2023-02-01T15:04:07.185Z,34.68
2023-02-01T15:06:39.285Z,34.53
2023-02-01T15:09:18.873Z,34.70
2023-02-01T15:12:04.974Z,34.62
2023-02-01T15:14:39.054Z,36.60
2023-02-01T15:17:21.632Z,34.20
2023-02-01T15:20:00.550Z,34.51
2023-02-01T15:22:29.888Z,34.24
2023-02-01T15:24:59.671Z,35.55
2023-02-01T15:27:29.005Z,36.08
2023-02-01T15:30:17.159Z,35.27
2023-02-01T15:32:44.856Z,35.46
2023-02-01T15:35:36.432Z,36.68
2023-02-01T15:38:24.641Z,36.48
2023-02-01T15:41:01.637Z,37.49
2023-02-01T15:43:31.330Z,37.83
2023-02-01T15:46:01.068Z,36.86
2023-02-01T15:48:36.362Z,37.99
2023-02-01T15:51:04.650Z,38.68
2023-02-01T15:53:32.826Z,38.81
2023-02-01T15:56:04.606Z,39.07
2023-02-01T15:58:33.005Z,39.35
2023-02-01T16:01:05.691Z,40.20
2023-02-01T16:03:48.519Z,40.15
2023-02-01T16:06:21.607Z,40.85
2023-02-01T16:09:10.533Z,40.80
2023-02-01T16:12:01.601Z,40.86
2023-02-01T16:14:29.283Z,41.88
2023-02-01T16:17:00.464Z,42.20
2023-02-01T16:19:29.694Z,41.82
2023-02-01T16:21:57.223Z,42.66
2023-02-01T16:24:26.815Z,41.76
2023-02-01T16:26:54.776Z,42.60
2023-02-01T16:29:22.807Z,42.76
2023-02-01T16:31:50.434Z,43.66
2023-02-01T16:34:20.435Z,43.34
2023-02-01T16:36:58.107Z,43.23
2023-02-01T16:39:25.901Z,43.49
2023-02-01T16:41:52.875Z,43.99
2023-02-01T16:44:20.692Z,44.00
2023-02-01T16:46:49.941Z,44.29
2023-02-01T16:49:26.711Z,44.99
2023-02-01T16:51:59.639Z,45.26
2023-02-01T16:54:27.892Z,45.20
2023-02-01T16:56:55.781Z,45.15
2023-02-01T16:59:22.781Z,44.63
2023-02-01T17:01:50.203Z,46.03
2023-02-01T17:04:17.640Z,45.53
2023-02-01T17:06:48.487Z,45.99
2023-02-01T17:09:16.136Z,46.00
2023-02-01T17:11:43.022Z,46.24
2023-02-01T17:14:20.736Z,46.37
2023-02-01T17:16:50.514Z,47.00
2023-02-01T17:19:19.939Z,47.51
2023-02-01T17:21:51.710Z,47.11
2023-02-01T17:24:21.880Z,47.78
2023-02-01T17:26:50.735Z,47.50
2023-02-01T17:29:18.140Z,47.45
2023-02-01T17:31:50.453Z,47.63
2023-02-01T17:34:19.609Z,46.34
2023-02-01T17:36:51.115Z,46.31
2023-02-01T17:39:38.322Z,46.60
2023-02-01T17:42:11.118Z,47.19
2023-02-01T17:44:39.036Z,47.48
2023-02-01T17:47:06.555Z,47.93
2023-02-01T17:49:35.951Z,48.04
2023-02-01T17:52:04.192Z,48.38
2023-02-01T17:54:32.471Z,49.07
2023-02-01T17:57:01.832Z,49.32
2023-02-01T17:59:32.716Z,49.56
2023-02-01T18:02:01.209Z,50.51
2023-02-01T18:04:28.863Z,50.59
2023-02-01T18:06:58.243Z,52.64
2023-02-01T18:09:27.035Z,53.26
2023-02-01T18:11:56.155Z,55.48
2023-02-01T18:14:24.090Z,55.67
2023-02-01T18:16:53.734Z,56.96
2023-02-01T18:19:22.503Z,58.53
2023-02-01T18:21:54.392Z,60.39
2023-02-01T18:24:26.560Z,60.81
2023-02-01T18:26:55.085Z,61.70
2023-02-01T18:29:22.314Z,61.42
2023-02-01T18:31:51.160Z,60.30
2023-02-01T18:34:22.677Z,61.96
2023-02-01T18:36:51.358Z,62.01
2023-02-01T18:39:19.095Z,63.40
2023-02-01T18:41:53.041Z,62.83
2023-02-01T18:44:27.077Z,63.66
2023-02-01T18:47:00.948Z,64.51
2023-02-01T18:49:28.095Z,67.35
2023-02-01T18:52:00.348Z,68.40
2023-02-01T18:54:35.932Z,67.58
2023-02-01T18:57:05.945Z,68.80
2023-02-01T18:59:42.703Z,69.09
2023-02-01T19:02:14.977Z,70.45
2023-02-01T19:04:43.705Z,73.19
2023-02-01T19:07:13.432Z,73.32
2023-02-01T19:09:42.477Z,74.39
2023-02-01T19:12:15.254Z,73.08
2023-02-01T19:15:14.773Z,74.35
2023-02-01T19:17:46.961Z,75.15
2023-02-01T19:20:19.112Z,75.63
2023-02-01T19:22:49.119Z,76.67
2023-02-01T19:25:22.273Z,75.72
2023-02-01T19:28:00.412Z,76.10
2023-02-01T19:30:37.240Z,78.28
2023-02-01T19:33:14.730Z,79.13
2023-02-01T19:35:47.613Z,80.20
2023-02-01T19:38:18.571Z,80.75
2023-02-01T19:40:50.605Z,80.11
2023-02-01T19:43:26.658Z,80.64
2023-02-01T19:45:58.873Z,79.84
2023-02-01T19:48:38.475Z,80.09
2023-02-01T19:51:12.575Z,79.67
2023-02-01T19:53:40.552Z,79.92
2023-02-01T19:56:15.786Z,78.15
2023-02-01T19:58:48.401Z,76.85
2023-02-01T20:01:19.153Z,76.50
2023-02-01T20:03:54.493Z,75.53
2023-02-01T20:06:25.721Z,76.58
2023-02-01T20:08:57.464Z,75.02
2023-02-01T20:11:26.897Z,73.83
2023-02-01T20:13:54.577Z,74.26
2023-02-01T20:16:24.239Z,73.46
2023-02-01T20:18:59.638Z,72.93
2023-02-01T20:21:35.475Z,73.55
2023-02-01T20:24:04.948Z,72.62
2023-02-01T20:26:35.789Z,73.43
2023-02-01T20:29:07.792Z,73.62
2023-02-01T20:31:36.528Z,72.82
2023-02-01T20:34:04.161Z,71.58
2023-02-01T20:36:32.273Z,71.82
2023-02-01T20:39:00.127Z,71.79
2023-02-01T20:41:27.302Z,72.69
2023-02-01T20:43:54.916Z,72.65
2023-02-01T20:46:26.846Z,72.52
2023-02-01T20:49:01.819Z,72.70
2023-02-01T20:51:33.264Z,72.60
2023-02-01T20:54:06.574Z,73.77
2023-02-01T20:56:36.821Z,73.41
2023-02-01T20:59:04.181Z,74.43
2023-02-01T21:01:34.186Z,75.86
2023-02-01T21:04:02.023Z,75.18
2023-02-01T21:06:29.865Z,75.27
2023-02-01T21:08:57.707Z,75.38
2023-02-01T21:11:25.235Z,78.47
2023-02-01T21:13:53.232Z,81.53
2023-02-01T21:16:22.865Z,82.58
2023-02-01T21:18:52.750Z,82.85
2023-02-01T21:21:20.361Z,83.61
2023-02-01T21:23:53.077Z,83.72
2023-02-01T21:26:22.704Z,84.77
2023-02-01T21:28:51.713Z,85.97
2023-02-01T21:31:21.567Z,88.06
2023-02-01T21:33:49.711Z,88.12
2023-02-01T21:36:21.163Z,88.81
2023-02-01T21:38:55.325Z,90.60
2023-02-01T21:41:43.741Z,91.71
2023-02-01T21:44:13.323Z,90.92
2023-02-01T21:46:41.718Z,93.04
2023-02-01T21:49:08.846Z,92.33
2023-02-01T21:51:38.289Z,93.18
2023-02-01T21:54:11.229Z,95.58
2023-02-01T21:56:39.969Z,97.48
2023-02-01T21:59:08.039Z,98.85
2023-02-01T22:01:35.234Z,99.00
2023-02-01T22:04:02.994Z,99.13
2023-02-01T22:06:34.119Z,97.51
2023-02-01T22:09:02.194Z,97.74
2023-02-01T22:11:29.790Z,98.15
2023-02-01T22:13:57.947Z,99.82
2023-02-01T22:16:25.199Z,100.00
2023-02-01T22:18:53.467Z,100.00
2023-02-01T22:21:21.872Z,100.00
2023-02-01T22:23:54.675Z,99.96
2023-02-01T22:26:24.302Z,99.11
2023-02-01T22:28:52.744Z,98.82
2023-02-01T22:31:20.756Z,99.70
2023-02-01T22:33:49.798Z,99.83
2023-02-01T22:36:18.024Z,98.73
2023-02-01T22:38:47.001Z,98.42
2023-02-01T22:41:14.449Z,98.57
2023-02-01T22:43:44.324Z,97.65
2023-02-01T22:46:14.157Z,97.73
2023-02-01T22:48:43.510Z,97.50
2023-02-01T22:51:22.385Z,99.78
2023-02-01T22:53:57.241Z,100.00
2023-02-01T22:56:30.536Z,100.00
2023-02-01T22:58:58.925Z,100.00
2023-02-01T23:01:26.723Z,100.00
2023-02-01T23:03:58.764Z,100.00
2023-02-01T23:06:28.728Z,100.00
2023-02-01T23:09:01.320Z,100.00
2023-02-01T23:11:29.509Z,100.00
2023-02-01T23:13:56.522Z,100.00
2023-02-01T23:16:23.957Z,100.00
2023-02-01T23:18:51.001Z,100.00
2023-02-01T23:21:20.603Z,100.00
2023-02-01T23:23:50.435Z,100.00
2023-02-01T23:26:18.241Z,100.00
2023-02-01T23:28:45.559Z,100.00
2023-02-01T23:31:14.657Z,100.00
2023-02-01T23:33:44.674Z,100.00
2023-02-01T23:36:16.107Z,100.00
2023-02-01T23:38:44.534Z,100.00
2023-02-01T23:41:13.313Z,100.00
2023-02-01T23:43:59.060Z,100.00
2023-02-01T23:46:41.632Z,100.00
2023-02-01T23:49:11.240Z,100.00
2023-02-01T23:51:41.673Z,100.00
2023-02-01T23:54:12.032Z,100.00
2023-02-01T23:56:42.840Z,100.00
2023-02-01T23:59:18.838Z,100.00
